createdAt,value
2022-10-19T00:01:10.913Z,9.50
2022-10-19T00:03:37.563Z,8.85
2022-10-19T00:06:14.798Z,8.68
2022-10-19T00:08:41.554Z,8.57
2022-10-19T00:11:08.352Z,9.32
2022-10-19T00:13:35.425Z,9.40
2022-10-19T00:16:02.610Z,9.95
2022-10-19T00:18:29.192Z,10.57
2022-10-19T00:21:04.783Z,8.98
2022-10-19T00:23:31.496Z,8.98
2022-10-19T00:25:58.455Z,9.18
2022-10-19T00:28:25.291Z,8.95
2022-10-19T00:30:52.037Z,10.27
2022-10-19T00:33:21.656Z,9.50
2022-10-19T00:35:50.212Z,9.05
2022-10-19T00:38:20.774Z,9.93
2022-10-19T00:40:47.815Z,9.13
2022-10-19T00:43:26.718Z,10.68
2022-10-19T00:45:53.389Z,10.38
2022-10-19T00:48:32.021Z,12.02
2022-10-19T00:50:58.942Z,10.07
2022-10-19T00:53:26.597Z,11.50
2022-10-19T00:55:53.605Z,10.68
2022-10-19T00:58:20.164Z,11.00
2022-10-19T01:00:46.822Z,12.40
2022-10-19T01:03:13.625Z,12.82
2022-10-19T01:05:40.404Z,14.27
2022-10-19T01:08:06.963Z,15.82
2022-10-19T01:10:59.810Z,15.43
2022-10-19T01:13:29.322Z,15.77
2022-10-19T01:16:03.534Z,15.07
2022-10-19T01:18:46.813Z,14.45
2022-10-19T01:21:19.292Z,13.57
2022-10-19T01:23:45.777Z,13.63
2022-10-19T01:26:52.638Z,13.23
2022-10-19T01:29:59.729Z,12.45
2022-10-19T01:32:32.388Z,12.88
2022-10-19T01:35:08.084Z,13.60
2022-10-19T01:37:46.469Z,13.00
2022-10-19T01:40:18.092Z,14.73
2022-10-19T01:42:45.977Z,16.02
2022-10-19T01:45:18.600Z,14.65
2022-10-19T01:47:57.334Z,15.82
2022-10-19T01:50:45.116Z,16.35
2022-10-19T01:53:12.444Z,15.48
2022-10-19T01:55:42.372Z,16.38
2022-10-19T01:58:10.753Z,13.85
2022-10-19T02:00:38.881Z,14.65
2022-10-19T02:03:05.792Z,13.75
2022-10-19T02:05:33.262Z,13.70
2022-10-19T02:08:02.088Z,12.57
2022-10-19T02:10:28.713Z,12.65
2022-10-19T02:12:55.384Z,12.30
2022-10-19T02:15:23.265Z,11.55
2022-10-19T02:17:51.648Z,12.02
2022-10-19T02:20:19.269Z,12.05
2022-10-19T02:22:45.862Z,10.70
2022-10-19T02:25:12.525Z,10.63
2022-10-19T02:27:41.901Z,10.00
2022-10-19T02:30:13.672Z,10.88
2022-10-19T02:32:40.433Z,11.90
2022-10-19T02:35:07.392Z,9.88
2022-10-19T02:37:33.991Z,10.27
2022-10-19T02:40:01.252Z,11.50
2022-10-19T02:42:35.866Z,10.98
2022-10-19T02:45:05.501Z,11.23
2022-10-19T02:47:42.514Z,10.45
2022-10-19T02:50:09.682Z,9.80
2022-10-19T02:52:40.257Z,10.73
2022-10-19T02:55:07.665Z,10.43
2022-10-19T02:57:34.556Z,9.48
2022-10-19T03:00:01.420Z,10.52
2022-10-19T03:02:27.982Z,10.45
2022-10-19T03:04:54.591Z,10.63
2022-10-19T03:07:21.583Z,9.30
2022-10-19T03:09:48.604Z,10.07
2022-10-19T03:12:15.509Z,10.35
2022-10-19T03:14:42.387Z,10.48
2022-10-19T03:17:08.995Z,11.15
2022-10-19T03:19:36.341Z,10.77
2022-10-19T03:22:03.319Z,10.85
2022-10-19T03:24:30.555Z,12.63
2022-10-19T03:26:57.282Z,11.57
2022-10-19T03:29:23.860Z,13.05
2022-10-19T03:31:50.481Z,12.00
2022-10-19T03:34:17.100Z,12.18
2022-10-19T03:36:43.692Z,13.15
2022-10-19T03:39:12.357Z,15.57
2022-10-19T03:41:39.052Z,14.73
2022-10-19T03:44:06.822Z,15.80
2022-10-19T03:46:34.641Z,15.50
2022-10-19T03:49:01.491Z,14.55
2022-10-19T03:51:29.542Z,13.65
2022-10-19T03:53:58.640Z,15.35
2022-10-19T03:56:26.119Z,14.38
2022-10-19T03:58:54.461Z,15.40
2022-10-19T04:01:25.457Z,17.05
2022-10-19T04:04:00.139Z,15.45
2022-10-19T04:06:28.640Z,16.42
2022-10-19T04:08:55.225Z,15.73
2022-10-19T04:11:24.985Z,15.32
2022-10-19T04:13:57.661Z,15.27
2022-10-19T04:16:25.538Z,12.90
2022-10-19T04:18:52.287Z,14.80
2022-10-19T04:21:30.213Z,15.57
2022-10-19T04:24:02.992Z,13.70
2022-10-19T04:26:29.759Z,14.18
2022-10-19T04:28:59.794Z,13.50
2022-10-19T04:31:27.796Z,14.30
2022-10-19T04:33:54.963Z,12.48
2022-10-19T04:36:21.712Z,13.00
2022-10-19T04:38:48.376Z,13.10
2022-10-19T04:41:17.367Z,12.32
2022-10-19T04:43:46.515Z,13.05
2022-10-19T04:46:15.162Z,11.68
2022-10-19T04:48:42.105Z,12.32
2022-10-19T04:51:09.482Z,12.07
2022-10-19T04:53:37.479Z,12.55
2022-10-19T04:56:05.385Z,12.20
2022-10-19T04:58:32.060Z,11.10
2022-10-19T05:00:58.687Z,11.30
2022-10-19T05:03:25.282Z,10.98
2022-10-19T05:05:51.843Z,11.48
2022-10-19T05:08:18.389Z,10.57
2022-10-19T05:10:47.598Z,10.77
2022-10-19T05:13:14.517Z,10.07
2022-10-19T05:15:41.936Z,11.23
2022-10-19T05:18:08.545Z,12.73
2022-10-19T05:20:35.101Z,12.38
2022-10-19T05:23:06.210Z,12.88
2022-10-19T05:25:34.165Z,12.30
2022-10-19T05:28:00.746Z,13.57
2022-10-19T05:30:27.328Z,12.20
2022-10-19T05:32:53.850Z,12.05
2022-10-19T05:35:22.630Z,12.13
2022-10-19T05:37:53.636Z,11.63
2022-10-19T05:40:20.218Z,13.43
2022-10-19T05:42:46.849Z,13.52
2022-10-19T05:45:13.428Z,13.48
2022-10-19T05:47:39.994Z,13.40
2022-10-19T05:50:06.865Z,12.02
2022-10-19T05:52:33.420Z,11.95
2022-10-19T05:54:59.993Z,12.63
2022-10-19T05:57:26.645Z,12.68
2022-10-19T05:59:56.669Z,12.10
2022-10-19T06:02:23.591Z,11.98
2022-10-19T06:04:50.281Z,12.15
2022-10-19T06:07:16.855Z,11.88
2022-10-19T06:09:43.518Z,12.90
2022-10-19T06:12:10.091Z,12.55
2022-10-19T06:14:36.715Z,11.40
2022-10-19T06:17:03.322Z,12.00
2022-10-19T06:19:29.926Z,12.43
2022-10-19T06:21:56.483Z,10.73
2022-10-19T06:24:23.128Z,11.43
2022-10-19T06:26:49.713Z,9.95
2022-10-19T06:29:16.272Z,9.98
2022-10-19T06:31:42.980Z,10.00
2022-10-19T06:34:09.682Z,9.55
2022-10-19T06:36:36.278Z,9.25
2022-10-19T06:39:03.416Z,9.40
2022-10-19T06:41:31.167Z,9.43
2022-10-19T06:43:58.156Z,9.88
2022-10-19T06:46:25.946Z,9.20
2022-10-19T06:48:57.565Z,9.38
2022-10-19T06:51:25.582Z,9.63
2022-10-19T06:53:56.526Z,9.80
2022-10-19T06:56:24.790Z,9.30
2022-10-19T06:58:51.799Z,10.35
2022-10-19T07:01:18.550Z,9.82
2022-10-19T07:03:45.293Z,9.80
2022-10-19T07:06:12.800Z,9.88
2022-10-19T07:08:40.267Z,9.82
2022-10-19T07:11:09.443Z,10.45
2022-10-19T07:13:36.128Z,9.70
2022-10-19T07:16:08.534Z,9.93
2022-10-19T07:18:35.862Z,10.50
2022-10-19T07:21:04.624Z,10.48
2022-10-19T07:23:32.008Z,12.20
2022-10-19T07:26:03.723Z,11.57
2022-10-19T07:28:30.501Z,12.50
2022-10-19T07:30:57.303Z,12.45
2022-10-19T07:33:23.952Z,12.20
2022-10-19T07:35:50.556Z,11.50
2022-10-19T07:38:17.140Z,11.68
2022-10-19T07:40:46.538Z,11.52
2022-10-19T07:43:14.131Z,12.23
2022-10-19T07:45:40.941Z,12.15
2022-10-19T07:48:07.539Z,12.57
2022-10-19T07:50:34.126Z,11.18
2022-10-19T07:53:02.662Z,10.82
2022-10-19T07:55:29.233Z,9.68
2022-10-19T07:57:55.770Z,10.55
2022-10-19T08:00:22.378Z,9.45
2022-10-19T08:03:00.122Z,10.30
2022-10-19T08:05:35.748Z,9.25
2022-10-19T08:08:02.453Z,9.35
2022-10-19T08:10:29.079Z,9.45
2022-10-19T08:12:55.767Z,8.55
2022-10-19T08:15:22.432Z,8.43
2022-10-19T08:17:49.070Z,8.40
2022-10-19T08:20:15.667Z,7.97
2022-10-19T08:22:45.265Z,7.10
2022-10-19T08:25:11.870Z,7.18
2022-10-19T08:27:38.534Z,8.20
2022-10-19T08:30:05.453Z,7.13
2022-10-19T08:32:32.568Z,6.95
2022-10-19T08:34:59.385Z,7.05
2022-10-19T08:37:40.741Z,6.72
2022-10-19T08:40:24.473Z,6.03
2022-10-19T08:43:01.172Z,6.82
2022-10-19T08:46:17.571Z,6.57
2022-10-19T08:48:44.327Z,6.15
2022-10-19T08:51:13.986Z,4.90
2022-10-19T08:53:43.477Z,5.82
2022-10-19T08:56:49.793Z,5.35
2022-10-19T08:59:33.784Z,5.88
2022-10-19T09:02:34.124Z,5.05
2022-10-19T09:05:04.582Z,5.35
2022-10-19T09:07:45.033Z,4.68
2022-10-19T09:10:17.858Z,4.45
2022-10-19T09:15:50.989Z,4.43
2022-10-19T09:18:20.043Z,5.10
2022-10-19T09:20:48.783Z,3.10
2022-10-19T09:23:26.681Z,2.90
2022-10-19T09:25:53.362Z,3.10
2022-10-19T09:28:31.404Z,3.20
2022-10-19T09:31:03.346Z,2.90
2022-10-19T09:33:35.901Z,3.47
2022-10-19T09:36:03.515Z,2.95
2022-10-19T09:38:31.564Z,2.70
2022-10-19T09:40:59.270Z,3.30
2022-10-19T09:43:27.213Z,3.40
2022-10-19T09:45:55.015Z,2.65
2022-10-19T09:48:29.122Z,2.95
2022-10-19T09:50:58.956Z,2.50
2022-10-19T09:53:26.863Z,2.10
2022-10-19T09:56:06.311Z,2.38
2022-10-19T09:58:33.673Z,2.05
2022-10-19T10:01:00.947Z,2.25
2022-10-19T10:03:43.568Z,2.22
2022-10-19T10:06:17.374Z,1.80
2022-10-19T10:08:49.067Z,1.80
2022-10-19T10:11:23.697Z,1.98
2022-10-19T10:13:52.029Z,1.80
2022-10-19T10:16:20.412Z,1.65
2022-10-19T10:19:01.054Z,1.98
2022-10-19T10:21:34.865Z,2.47
2022-10-19T10:24:17.090Z,2.03
2022-10-19T10:26:47.058Z,2.57
2022-10-19T10:29:39.952Z,2.20
2022-10-19T10:32:08.143Z,1.58
2022-10-19T10:35:01.029Z,1.73
2022-10-19T10:37:49.874Z,2.88
2022-10-19T10:40:23.679Z,1.90
2022-10-19T10:42:51.452Z,2.78
2022-10-19T10:45:40.299Z,1.75
2022-10-19T10:48:42.643Z,1.98
2022-10-19T10:51:39.861Z,1.98
2022-10-19T10:54:17.643Z,1.77
2022-10-19T10:56:45.128Z,2.03
2022-10-19T10:59:20.003Z,2.83
2022-10-19T11:02:21.233Z,2.50
2022-10-19T11:05:06.569Z,1.98
2022-10-19T11:07:34.224Z,2.47
2022-10-19T11:10:22.748Z,2.45
2022-10-19T11:12:58.846Z,2.85
2022-10-19T11:15:33.273Z,3.20
2022-10-19T11:18:05.769Z,2.80
2022-10-19T11:20:32.746Z,2.90
2022-10-19T11:23:28.159Z,2.95
2022-10-19T11:26:24.093Z,3.10
2022-10-19T11:29:13.157Z,2.50
2022-10-19T11:31:51.081Z,2.70
2022-10-19T11:34:45.655Z,2.58
2022-10-19T11:37:27.005Z,2.15
2022-10-19T11:39:56.536Z,2.70
2022-10-19T11:42:41.874Z,2.22
2022-10-19T11:45:48.620Z,2.30
2022-10-19T11:48:26.774Z,2.20
2022-10-19T11:51:21.394Z,1.98
2022-10-19T11:54:15.456Z,2.42
2022-10-19T11:57:12.369Z,2.50
2022-10-19T12:00:03.978Z,1.88
2022-10-19T12:03:14.786Z,2.13
2022-10-19T12:06:03.074Z,1.95
2022-10-19T12:08:40.195Z,1.58
2022-10-19T12:11:26.105Z,1.75
2022-10-19T12:13:57.307Z,1.90
2022-10-19T12:16:35.931Z,1.88
2022-10-19T12:19:02.522Z,1.50
2022-10-19T12:21:36.434Z,1.60
2022-10-19T12:24:04.944Z,1.88
2022-10-19T12:26:34.638Z,1.67
2022-10-19T12:29:03.724Z,1.83
2022-10-19T12:31:30.277Z,1.83
2022-10-19T12:34:08.722Z,2.13
2022-10-19T12:37:13.790Z,2.05
2022-10-19T12:39:46.435Z,1.70
2022-10-19T12:42:19.212Z,1.73
2022-10-19T12:45:07.658Z,1.65
2022-10-19T12:47:34.722Z,1.60
2022-10-19T12:50:01.585Z,1.88
2022-10-19T12:52:52.399Z,1.95
2022-10-19T12:55:35.073Z,1.40
2022-10-19T13:00:35.678Z,1.50
2022-10-19T13:03:04.182Z,1.70
2022-10-19T13:05:31.635Z,2.08
2022-10-19T13:07:58.231Z,1.67
2022-10-19T13:10:26.667Z,1.75
2022-10-19T13:12:53.540Z,2.10
2022-10-19T13:15:35.549Z,1.90
2022-10-19T13:18:13.349Z,2.10
2022-10-19T13:23:07.258Z,1.60
2022-10-19T13:25:35.391Z,2.00
2022-10-19T13:28:09.368Z,2.22
2022-10-19T13:30:36.088Z,1.80
2022-10-19T13:33:33.390Z,1.70
2022-10-19T13:36:00.032Z,1.85
2022-10-19T13:38:29.870Z,2.10
2022-10-19T13:41:05.944Z,1.60
2022-10-19T13:43:40.048Z,2.33
2022-10-19T13:46:14.980Z,2.15
2022-10-19T13:49:03.453Z,1.80
2022-10-19T13:51:48.525Z,1.75
2022-10-19T13:54:46.057Z,1.77
2022-10-19T13:57:19.702Z,1.75
2022-10-19T13:59:46.201Z,1.58
2022-10-19T14:02:34.695Z,1.90
2022-10-19T14:05:19.867Z,1.52
2022-10-19T14:08:24.553Z,2.00
2022-10-19T14:11:01.226Z,1.63
2022-10-19T14:13:28.296Z,2.25
2022-10-19T14:15:56.919Z,1.77
2022-10-19T14:18:26.255Z,1.63
2022-10-19T14:21:07.131Z,1.85
2022-10-19T14:23:35.330Z,1.60
2022-10-19T14:26:17.232Z,1.80
2022-10-19T14:28:43.874Z,1.88
2022-10-19T14:31:17.130Z,1.98
2022-10-19T14:33:46.861Z,1.65
2022-10-19T14:36:16.656Z,1.70
2022-10-19T14:38:46.533Z,2.03
2022-10-19T14:41:26.901Z,2.13
2022-10-19T14:43:54.571Z,1.88
2022-10-19T14:46:21.157Z,1.73
2022-10-19T14:48:49.643Z,1.95
2022-10-19T14:51:38.634Z,2.35
2022-10-19T14:54:13.030Z,1.90
2022-10-19T14:56:51.687Z,2.00
2022-10-19T14:59:37.895Z,2.03
2022-10-19T15:02:12.293Z,2.20
2022-10-19T15:04:39.102Z,2.00
2022-10-19T15:07:26.574Z,2.17
2022-10-19T15:09:56.901Z,2.40
2022-10-19T15:12:38.202Z,1.90
2022-10-19T15:15:22.296Z,2.40
2022-10-19T15:18:25.125Z,2.30
2022-10-19T15:21:14.581Z,2.85
2022-10-19T15:23:43.716Z,2.60
2022-10-19T15:26:22.158Z,2.70
2022-10-19T15:28:49.031Z,2.53
2022-10-19T15:31:19.638Z,2.97
2022-10-19T15:34:00.031Z,2.85
2022-10-19T15:36:27.699Z,2.60
2022-10-19T15:39:25.100Z,3.00
2022-10-19T15:42:23.929Z,2.53
2022-10-19T15:44:50.555Z,3.05
2022-10-19T15:47:19.101Z,3.20
2022-10-19T15:50:04.150Z,3.45
2022-10-19T15:52:33.160Z,2.80
2022-10-19T15:55:00.702Z,2.90
2022-10-19T15:57:34.776Z,2.90
2022-10-19T16:02:49.513Z,2.70
2022-10-19T16:05:16.183Z,3.20
2022-10-19T16:07:42.989Z,3.00
2022-10-19T16:10:16.158Z,3.20
2022-10-19T16:12:42.896Z,3.53
2022-10-19T16:15:13.392Z,3.20
2022-10-19T16:17:40.612Z,3.00
2022-10-19T16:20:09.606Z,3.15
2022-10-19T16:22:36.253Z,3.15
2022-10-19T16:25:02.951Z,3.40
2022-10-19T16:27:29.589Z,3.97
2022-10-19T16:29:56.205Z,3.33
2022-10-19T16:32:22.908Z,3.80
2022-10-19T16:34:49.500Z,4.15
2022-10-19T16:37:16.082Z,4.07
2022-10-19T16:39:42.667Z,3.80
2022-10-19T16:42:09.305Z,4.20
2022-10-19T16:44:35.884Z,4.40
2022-10-19T16:47:02.541Z,4.20
2022-10-19T16:49:29.232Z,5.68
2022-10-19T16:51:57.527Z,4.30
2022-10-19T16:54:26.555Z,4.35
2022-10-19T16:56:53.196Z,4.80
2022-10-19T16:59:19.846Z,5.28
2022-10-19T17:01:47.063Z,4.75
2022-10-19T17:04:15.528Z,5.22
2022-10-19T17:06:42.192Z,5.05
2022-10-19T17:09:40.888Z,5.70
2022-10-19T17:11:55.873Z,5.85
2022-10-19T17:14:22.440Z,5.70
2022-10-19T17:16:49.046Z,5.90
2022-10-19T17:19:15.713Z,6.22
2022-10-19T17:21:42.601Z,5.82
2022-10-19T17:24:21.140Z,6.60
2022-10-19T17:26:48.585Z,6.45
2022-10-19T17:29:15.361Z,6.15
2022-10-19T17:31:42.183Z,5.93
2022-10-19T17:34:09.317Z,6.35
2022-10-19T17:36:38.104Z,7.25
2022-10-19T17:39:07.896Z,7.57
2022-10-19T17:41:34.579Z,7.88
2022-10-19T17:44:01.181Z,6.57
2022-10-19T17:46:29.778Z,7.30
2022-10-19T17:48:57.073Z,7.43
2022-10-19T17:51:29.265Z,8.63
2022-10-19T17:53:57.811Z,10.25
2022-10-19T17:56:24.608Z,8.52
2022-10-19T17:58:51.345Z,7.88
2022-10-19T18:01:19.212Z,7.82
2022-10-19T18:03:46.943Z,8.60
2022-10-19T18:06:16.159Z,7.93
2022-10-19T18:08:47.715Z,7.63
2022-10-19T18:11:19.527Z,7.85
2022-10-19T18:13:46.395Z,8.30
2022-10-19T18:16:16.116Z,8.52
2022-10-19T18:18:45.747Z,7.60
2022-10-19T18:21:13.584Z,7.65
2022-10-19T18:23:40.820Z,7.85
2022-10-19T18:26:16.953Z,8.25
2022-10-19T18:28:43.554Z,7.22
2022-10-19T18:31:11.202Z,7.80
2022-10-19T18:33:38.299Z,7.90
2022-10-19T18:36:06.235Z,7.60
2022-10-19T18:38:32.911Z,8.27
2022-10-19T18:41:11.593Z,7.80
2022-10-19T18:43:41.434Z,8.50
2022-10-19T18:46:08.833Z,8.15
2022-10-19T18:48:37.071Z,8.82
2022-10-19T18:51:06.332Z,8.13
2022-10-19T18:53:33.634Z,9.30
2022-10-19T18:56:01.844Z,8.27
2022-10-19T18:58:31.231Z,7.88
2022-10-19T19:01:20.528Z,8.45
2022-10-19T19:03:49.793Z,8.20
2022-10-19T19:06:20.331Z,8.05
2022-10-19T19:08:46.927Z,8.63
2022-10-19T19:11:18.939Z,8.02
2022-10-19T19:13:50.196Z,8.00
2022-10-19T19:16:16.932Z,8.77
2022-10-19T19:18:43.804Z,8.35
2022-10-19T19:21:29.649Z,8.80
2022-10-19T19:23:58.076Z,8.93
2022-10-19T19:26:26.446Z,8.57
2022-10-19T19:28:53.169Z,9.05
2022-10-19T19:31:19.967Z,8.18
2022-10-19T19:33:47.372Z,9.07
2022-10-19T19:36:15.088Z,9.90
2022-10-19T19:38:41.760Z,9.75
2022-10-19T19:41:10.579Z,8.90
2022-10-19T19:43:37.660Z,9.77
2022-10-19T19:46:08.850Z,9.85
2022-10-19T19:48:37.125Z,9.52
2022-10-19T19:51:04.299Z,10.07
2022-10-19T19:53:30.928Z,9.75
2022-10-19T19:55:57.591Z,9.85
2022-10-19T19:58:24.188Z,9.95
2022-10-19T20:00:50.789Z,9.20
2022-10-19T20:03:17.358Z,9.55
2022-10-19T20:05:43.951Z,9.82
2022-10-19T20:08:11.251Z,11.02
2022-10-19T20:10:39.429Z,9.63
2022-10-19T20:13:06.097Z,10.32
2022-10-19T20:15:32.786Z,10.50
2022-10-19T20:17:59.343Z,10.70
2022-10-19T20:20:25.956Z,11.25
2022-10-19T20:22:52.531Z,10.73
2022-10-19T20:25:19.133Z,10.68
2022-10-19T20:27:45.711Z,12.65
2022-10-19T20:30:12.386Z,11.82
2022-10-19T20:32:39.009Z,12.93
2022-10-19T20:35:07.426Z,11.50
2022-10-19T20:37:34.041Z,12.30
2022-10-19T20:40:01.536Z,11.48
2022-10-19T20:42:29.898Z,11.40
2022-10-19T20:44:56.514Z,11.30
2022-10-19T20:47:23.100Z,12.75
2022-10-19T20:49:49.744Z,11.75
2022-10-19T20:52:16.349Z,12.13
2022-10-19T20:54:42.971Z,12.63
2022-10-19T20:57:09.538Z,13.50
2022-10-19T20:59:37.974Z,11.88
2022-10-19T21:02:04.638Z,14.02
2022-10-19T21:04:31.274Z,11.45
2022-10-19T21:06:57.844Z,12.55
2022-10-19T21:09:26.053Z,12.10
2022-10-19T21:11:52.815Z,11.05
2022-10-19T21:14:25.268Z,11.38
2022-10-19T21:16:56.625Z,12.00
2022-10-19T21:19:25.483Z,10.48
2022-10-19T21:21:56.992Z,11.57
2022-10-19T21:24:25.861Z,11.20
2022-10-19T21:29:24.190Z,11.77
2022-10-19T21:31:52.294Z,10.98
2022-10-19T21:34:26.946Z,12.18
2022-10-19T21:36:53.981Z,10.45
2022-10-19T21:39:20.812Z,11.80
2022-10-19T21:41:47.592Z,12.45
2022-10-19T21:44:15.497Z,11.27
2022-10-19T21:46:45.464Z,11.45
2022-10-19T21:49:12.330Z,10.40
2022-10-19T21:51:53.776Z,10.55
2022-10-19T21:54:24.748Z,11.18
2022-10-19T21:56:51.681Z,10.82
2022-10-19T21:59:18.377Z,11.40
2022-10-19T22:01:45.000Z,12.88
2022-10-19T22:04:16.737Z,11.68
2022-10-19T22:06:43.942Z,12.18
2022-10-19T22:09:13.893Z,11.73
2022-10-19T22:11:40.556Z,11.88
2022-10-19T22:14:07.150Z,13.20
2022-10-19T22:16:35.089Z,11.48
2022-10-19T22:19:01.864Z,12.82
2022-10-19T22:21:30.362Z,13.32
2022-10-19T22:24:01.777Z,13.63
2022-10-19T22:26:30.389Z,11.93
2022-10-19T22:28:57.874Z,13.05
2022-10-19T22:31:25.333Z,11.82
2022-10-19T22:33:51.932Z,12.75
2022-10-19T22:36:18.560Z,12.50
2022-10-19T22:38:45.268Z,13.00
2022-10-19T22:41:11.926Z,11.15
2022-10-19T22:43:38.486Z,11.77
2022-10-19T22:46:05.082Z,11.32
2022-10-19T22:48:31.708Z,10.38
2022-10-19T22:50:58.300Z,11.50
2022-10-19T22:53:24.899Z,11.55
2022-10-19T22:55:51.541Z,10.60
2022-10-19T22:58:18.294Z,11.55
2022-10-19T23:00:44.937Z,10.95
2022-10-19T23:03:11.492Z,11.00
2022-10-19T23:05:38.074Z,10.50
2022-10-19T23:08:04.838Z,11.10
2022-10-19T23:10:32.732Z,9.90
2022-10-19T23:12:59.400Z,10.25
2022-10-19T23:15:25.986Z,10.23
2022-10-19T23:17:52.529Z,11.63
2022-10-19T23:20:19.164Z,10.88
2022-10-19T23:22:45.738Z,10.57
2022-10-19T23:25:12.333Z,10.18
2022-10-19T23:27:39.259Z,10.15
2022-10-19T23:30:06.472Z,10.70
2022-10-19T23:32:33.064Z,11.05
2022-10-19T23:34:59.617Z,10.52
2022-10-19T23:37:26.197Z,10.10
2022-10-19T23:39:52.771Z,11.93
2022-10-19T23:42:19.380Z,11.40
2022-10-19T23:44:46.001Z,10.40
2022-10-19T23:47:12.646Z,10.48
2022-10-19T23:49:39.247Z,10.18
2022-10-19T23:52:05.827Z,10.50
2022-10-19T23:54:32.436Z,10.25
2022-10-19T23:56:59.148Z,10.77
2022-10-19T23:59:25.762Z,11.20
